Station CHAV3 - 9751639 - Charlotte Amalie, VI Image indicating link to RSS feed of recent meteorological observations for station CHAV3


Conditions at CHAV3 as of
(7:48 am AST)
1148 GMT on 09/06/2026:
     

Click on the graph icon in the table below to see a time series plot of the last five days of that observation.

5-day plot - Wind Direction Wind Direction (WDIR): SE ( 140 deg true )
5-day plot - Wind Speed Wind Speed (WSPD): 7.0 kts
5-day plot - Wind Gust Wind Gust (GST): 9.9 kts
5-day plot - Atmospheric Pressure Atmospheric Pressure (PRES):29.93 in
5-day plot - Wind Speed at 10 Meters Wind Speed at 10 meters (WSPD10M): 7.8 kts
5-day plot - Wind Speed at 20 Meters Wind Speed at 20 meters (WSPD20M): 7.8 kts
5-day plot -  Wind Speed, Wind Gust and Atmospheric Pressure Combined plot of Wind Speed, Gust, and Air Pressure
NOS Water Level Observation Network Water Level
Previous observations
TIME
(AST)
5-day plot - Wind Direction
WDIR
 
5-day plot - Wind Speed
WSPD
kts
5-day plot - Wind Gust
GST
kts
5-day plot - Wave Height
WVHT
ft
5-day plot - Dominant Wave Period
DPD
sec
5-day plot - Average Wave Period
APD
sec
5-day plot - Mean Wave Direction
MWD
 
5-day plot - Atmospheric Pressure
PRES
in
5-day plot - Pressure Tendency
PTDY
in
5-day plot - Air Temperature
ATMP
°F
5-day plot - Water Temperature
WTMP
°F
5-day plot - Dew Point
DEWP
°F
5-day plot - Salinity
SAL
psu
5-day plot - Visibility
VIS
nmi
5-day plot - Tide (above MLLW)
TIDE
ft
2026-09-06 07:42 am SE 5.1 6.0----29.93-------
2026-09-06 07:36 am SE 5.1 6.0----29.93-------
2026-09-06 07:30 am SE 2.9 6.0----29.93- 85.3-----
2026-09-06 07:24 am E 1.9 6.0----29.93- 85.1-----
2026-09-06 07:18 amESE 4.1 6.0----29.93-------
2026-09-06 07:12 am E 2.9 5.1----29.93-------
2026-09-06 07:06 am E 2.9 6.0----29.93-------
2026-09-06 07:00 am E 2.9 5.1----29.92+0.03 84.6-----
2026-09-06 06:54 am E 1.9 7.0----29.92- 84.4-----
2026-09-06 06:48 am E 1.9 5.1----29.92- 84.0-----
2026-09-06 06:42 am NE 4.1 6.0----29.92- 84.0-----
2026-09-06 06:36 amENE 2.9 5.1----29.91- 83.7-----
2026-09-06 06:30 am NE 4.1 5.1----29.91- 83.7-----
2026-09-06 06:24 amENE 2.9 5.1----29.91- 83.7-----
2026-09-06 06:18 am NE 2.9 5.1----29.91-------
2026-09-06 06:12 amENE 2.9 5.1----29.91-------
2026-09-06 06:06 amENE 2.9 5.1----29.91-------
2026-09-06 06:00 am E 2.9 4.1----29.91+0.01 83.3-----
2026-09-06 05:54 am E 1.9 5.1----29.91- 83.3-----
2026-09-06 05:48 am NE 4.1 5.1----29.90- 83.7-----
2026-09-06 05:42 am NE 2.9 4.1----29.90- 83.5-----
2026-09-06 05:36 amENE 1.9 5.1----29.90- 83.3-----
2026-09-06 05:30 am NE 4.1 5.1----29.90- 83.3-----
2026-09-06 05:24 amNNE 4.1 5.1----29.90- 83.3-----
2026-09-06 05:18 amENE 2.9 5.1----29.90-------
2026-09-06 05:12 am E 2.9 5.1----29.90-------
2026-09-06 05:06 am E 1.9 6.0----29.90-------
2026-09-06 05:00 am E 4.1 6.0----29.89-0.01 83.1-----
2026-09-06 04:54 am NE 4.1 6.0----29.89- 83.3-----
2026-09-06 04:48 am NE 4.1 6.0----29.89- 83.3-----
2026-09-06 04:42 amENE 6.0 9.9----29.90- 83.5-----
2026-09-06 04:36 amENE 5.1 7.0----29.90- 83.5-----
2026-09-06 04:30 am E 2.9 6.0----29.90- 83.5-----
2026-09-06 04:24 am E 6.0 8.9----29.90- 83.5-----
2026-09-06 04:18 am SE 4.1 7.0----29.89-------
2026-09-06 04:12 amENE 2.9 8.0----29.90-------
2026-09-06 04:06 am E 5.1 8.0----29.90-------
2026-09-06 04:00 amESE 4.1 8.0----29.89-0.03 83.7-----
2026-09-06 03:54 amESE 4.1 6.0----29.90- 83.7-----
2026-09-06 03:48 am E 1.9 5.1----29.90-------
2026-09-06 03:42 am SE 2.9 7.0----29.89-------
2026-09-06 03:36 amESE 5.1 8.0----29.90-------
2026-09-06 03:30 am E 2.9 6.0----29.90- 83.7-----
2026-09-06 03:24 am SE 4.1 8.0----29.90- 83.7-----
2026-09-06 03:18 am E 5.1 8.0----29.90-------
2026-09-06 03:12 am E 5.1 7.0----29.90-------
2026-09-06 03:06 am E 4.1 7.0----29.90-------
2026-09-06 03:00 am E 4.1 5.1----29.90-0.05 83.7-----
2026-09-06 02:54 amENE 4.1 7.0----29.90- 83.8-----
2026-09-06 02:48 am E 5.1 7.0----29.90- 83.8-----
2026-09-06 02:42 am E 5.1 7.0----29.90- 83.8-----
2026-09-06 02:36 am E 2.9 5.1----29.90- 83.8-----
2026-09-06 02:30 am E 4.1 6.0----29.90- 83.8-----
2026-09-06 02:24 am E 4.1 8.0----29.90- 83.8-----
2026-09-06 02:18 amESE 5.1 7.0----29.90-------
2026-09-06 02:12 amESE 4.1 6.0----29.90-------
2026-09-06 02:06 am E 1.9 5.1----29.91-------
2026-09-06 02:00 amESE 6.0 8.9----29.91-0.04 83.8-----
2026-09-06 01:54 am E 2.9 6.0----29.91- 83.7-----
2026-09-06 01:48 amESE 2.9 7.0----29.91- 83.7-----
2026-09-06 01:42 amESE 5.1 8.9----29.91- 83.5-----
2026-09-06 01:36 amESE 4.1 6.0----29.91- 83.3-----
2026-09-06 01:30 am E 4.1 7.0----29.92- 83.5-----
2026-09-06 01:24 amESE 4.1 6.0----29.92- 83.5-----
2026-09-06 01:18 amESE 4.1 6.0----29.92-------
2026-09-06 01:12 amESE 4.1 8.0----29.92-------
2026-09-06 01:06 amESE 6.0 8.0----29.93-------
2026-09-06 01:00 amESE 4.1 6.0----29.93-0.03 83.7-----
2026-09-06 12:54 am E 2.9 8.9----29.93- 83.8-----
2026-09-06 12:48 am E 5.1 8.9----29.93- 83.7-----
2026-09-06 12:42 am E 5.1 11.1----29.93- 83.7-----
2026-09-06 12:36 am E 7.0 9.9----29.93- 83.7-----
2026-09-06 12:30 am E 8.0 9.9----29.93- 83.7-----
2026-09-06 12:24 am E 5.1 7.0----29.94- 83.7-----
2026-09-06 12:18 amESE 5.1 9.9----29.94-------
2026-09-06 12:12 am E 5.1 8.0----29.95-------
2026-09-06 12:06 am E 6.0 8.9----29.95-------
2026-09-06 12:00 amENE 6.0 8.9----29.95+0.00 83.7-----
2026-09-05 11:54 pm E 7.0 9.9----29.95- 84.0-----
2026-09-05 11:48 pm E 6.0 9.9----29.95- 84.0-----
2026-09-05 11:42 pm E 6.0 8.9----29.95- 84.0-----
2026-09-05 11:36 pm E 4.1 8.0----29.95- 84.0-----
2026-09-05 11:30 pmESE 5.1 11.1----29.95- 84.0-----
2026-09-05 11:24 pm E 6.0 9.9----29.95- 83.8-----
2026-09-05 11:18 pm-------29.95- 83.8-----
2026-09-05 11:12 pm-------29.96- 84.4-----
2026-09-05 11:06 pm-------29.96- 84.4-----
2026-09-05 11:00 pm E 1.9 5.1----29.95+0.01 84.4-----
2026-09-05 10:54 pm E 4.1 5.1----29.95- 84.4-----
2026-09-05 10:48 pmENE 2.9 6.0----29.95-------
2026-09-05 10:42 pm NE 4.1 7.0----29.95-------
2026-09-05 10:36 pmENE 5.1 7.0----29.95-------
2026-09-05 10:30 pm E 2.9 5.1----29.96- 84.4-----
2026-09-05 10:24 pmESE 2.9 6.0----29.96- 84.2-----
2026-09-05 10:18 pmENE 4.1 5.1----29.96-------
2026-09-05 10:12 pm E 2.9 5.1----29.96-------
2026-09-05 10:06 pmENE 5.1 8.0----29.96-------
2026-09-05 10:00 pmENE 5.1 7.0----29.96+0.04 84.4-----
2026-09-05 09:54 pm E 2.9 6.0----29.96- 84.4-----
2026-09-05 09:48 pm E 5.1 8.9----29.96- 84.4-----
2026-09-05 09:42 pm E 2.9 6.0----29.96- 84.4-----
2026-09-05 09:36 pm E 5.1 7.0----29.96- 84.6-----
2026-09-05 09:30 pm E 5.1 7.0----29.95- 84.4-----
2026-09-05 09:24 pm E 5.1 7.0----29.95- 84.4-----
2026-09-05 09:18 pm E 5.1 6.0----29.95-------
2026-09-05 09:12 pmENE 4.1 7.0----29.95-------
2026-09-05 09:06 pmESE 2.9 5.1----29.95-------
2026-09-05 09:00 pm E 2.9 5.1----29.95+0.03 84.4-----
2026-09-05 08:54 pm E 4.1 7.0----29.95- 84.4-----
2026-09-05 08:48 pm E 5.1 6.0----29.94- 84.4-----
2026-09-05 08:42 pm E 2.9 6.0----29.94- 84.6-----
2026-09-05 08:36 pm E 4.1 6.0----29.94- 84.6-----
2026-09-05 08:30 pm-------29.93- 84.4-----
2026-09-05 08:24 pm-------29.94- 84.6-----
2026-09-05 08:18 pm E 2.9 5.1----29.93-------
2026-09-05 08:12 pm E 2.9 5.1----29.93-------
2026-09-05 08:06 pm E 2.9 6.0----29.93-------
2026-09-05 08:00 pm E 5.1 6.0----29.94+0.03 84.6-----
2026-09-05 07:54 pm E 4.1 6.0----29.94- 84.7-----
2026-09-05 07:48 pmENE 4.1 5.1----29.93-------
2026-09-05 07:42 pmENE 2.9 4.1----29.93-------
2026-09-05 07:36 pm E 2.9 6.0----29.93-------
2026-09-05 07:30 pm E 4.1 6.0----29.93- 84.7-----
2026-09-05 07:24 pm E 4.1 5.1----29.93- 84.7-----
2026-09-05 07:18 pmESE 4.1 7.0----29.92-------
2026-09-05 07:12 pm E 5.1 8.0----29.92-------
2026-09-05 07:06 pmESE 6.0 8.0----29.92-------
2026-09-05 07:00 pmESE 4.1 8.0----29.92+0.03 84.9-----
2026-09-05 06:54 pmESE 2.9 6.0----29.92- 85.1-----
2026-09-05 06:48 pm SE 5.1 8.0----29.92- 84.9-----
2026-09-05 06:42 pm SE 7.0 9.9----29.92- 85.1-----
2026-09-05 06:36 pm SE 5.1 7.0----29.92- 85.1-----
2026-09-05 06:30 pmESE 5.1 8.0----29.91- 85.3-----
2026-09-05 06:24 pm SE 2.9 8.0----29.91- 85.3-----
2026-09-05 06:18 pm SE 5.1 8.0----29.91-------
2026-09-05 06:12 pmESE 5.1 9.9----29.91-------
2026-09-05 06:06 pmESE 6.0 9.9----29.91-------
2026-09-05 06:00 pmESE 7.0 9.9----29.91+0.02 85.5-----
2026-09-05 05:54 pm SE 6.0 9.9----29.91- 85.6-----
2026-09-05 05:48 pm SE 5.1 9.9----29.91- 85.8-----
2026-09-05 05:42 pmSSE 8.0 9.9----29.91- 86.0-----
2026-09-05 05:36 pm SE 4.1 8.9----29.91- 86.0-----
2026-09-05 05:30 pmESE 7.0 11.1----29.91- 85.6-----
2026-09-05 05:24 pm SE 7.0 11.1----29.91- 85.6-----
2026-09-05 05:18 pm SE 7.0 9.9----29.91-------
2026-09-05 05:12 pm SE 2.9 9.9----29.91-------
2026-09-05 05:06 pm SE 7.0 11.1----29.91-------
2026-09-05 05:00 pmSSE 7.0 9.9----29.91- 85.8-----
2026-09-05 04:54 pm SE 7.0 11.1----29.91- 85.8-----
2026-09-05 04:48 pmESE 7.0 9.9----29.91- 86.0-----
2026-09-05 04:42 pm SE 6.0 9.9----29.91- 86.2-----
2026-09-05 04:36 pm E 6.0 11.1----29.91- 86.4-----
2026-09-05 04:30 pm E 7.0 11.1----29.90- 86.5-----
2026-09-05 04:24 pm E 6.0 9.9----29.90- 86.5-----
2026-09-05 04:18 pmESE 5.1 11.1----29.90-------
2026-09-05 04:12 pm E 7.0 9.9----29.90-------
2026-09-05 04:06 pm SE 7.0 13.0----29.90-------
2026-09-05 04:00 pmSSE 8.0 12.0----29.89-0.03 86.5-----
2026-09-05 03:54 pmSSE 6.0 9.9----29.89- 86.9-----
2026-09-05 03:48 pm SE 7.0 11.1----29.89-------
2026-09-05 03:42 pmESE 6.0 11.1----29.89-------
2026-09-05 03:36 pm SE 6.0 12.0----29.89-------
2026-09-05 03:30 pmSSE 8.9 12.0----29.89- 86.7-----
2026-09-05 03:24 pm SE 8.9 15.9----29.89- 86.7-----
2026-09-05 03:18 pm S 14.0 15.9----29.89-------
2026-09-05 03:12 pmSSE 9.9 15.9----29.89-------
2026-09-05 03:06 pmSSE 9.9 17.1----29.89-------
2026-09-05 03:00 pmSSE 11.1 15.0----29.89-0.05 86.9-----
2026-09-05 02:54 pmSSE 5.1 14.0----29.90- 87.6-----
2026-09-05 02:48 pmSSE 8.0 15.9----29.90- 87.6-----
2026-09-05 02:42 pmESE 5.1 12.0----29.90- 88.5-----
2026-09-05 02:36 pmSSE 9.9 12.0----29.90- 87.8-----
2026-09-05 02:30 pm SE 8.0 13.0----29.90- 87.8-----
2026-09-05 02:24 pmESE 8.0 12.0----29.90- 87.8-----
2026-09-05 02:18 pm SE 4.1 13.0----29.91-------
2026-09-05 02:12 pm SE 8.0 15.0----29.91-------
2026-09-05 02:06 pm SE 8.9 17.1----29.91-------
2026-09-05 02:00 pm S 13.0 15.9------ 86.0-----
2026-09-05 01:54 pmSSE 8.9 15.9------ 86.9-----
2026-09-05 01:48 pmSSE 12.0 17.1----29.91- 86.5-----
2026-09-05 01:42 pm S 12.0 17.1----29.91- 86.0-----
2026-09-05 01:36 pm S 13.0 17.1----29.91- 86.5-----
2026-09-05 01:30 pm S 9.9 15.9----29.91- 87.1-----
2026-09-05 01:24 pm S 12.0 15.9----29.91- 86.9-----
2026-09-05 01:18 pmSSE 11.1 14.0----29.92-------
2026-09-05 01:12 pm SE 6.0 13.0----29.92-------
2026-09-05 01:06 pmSSE 8.9 14.0----29.92-------
2026-09-05 01:00 pm SE 7.0 14.0----29.93-0.04 88.2-----
2026-09-05 12:54 pm SE 8.0 15.9----29.93- 87.6-----
2026-09-05 12:48 pmESE 8.0 13.0----29.93- 88.2-----
2026-09-05 12:42 pmESE 8.9 14.0----29.93- 87.6-----
2026-09-05 12:36 pm SE 7.0 12.0----29.93- 87.6-----
2026-09-05 12:30 pm-------29.93- 87.3-----
2026-09-05 12:24 pm-------29.93- 86.9-----
2026-09-05 12:18 pm SE 6.0 17.1----29.94- 86.9-----
2026-09-05 12:12 pmSSE 8.0 14.0----29.94- 86.9-----
2026-09-05 12:06 pm SE 7.0 13.0----29.94- 87.3-----
2026-09-05 12:00 pmESE 4.1 11.1----29.94-0.02 87.6-----
2026-09-05 11:54 am SE 7.0 12.0----29.95- 87.1-----
2026-09-05 11:48 amSSE 8.0 13.0----29.95- 86.9-----
2026-09-05 11:42 amESE 5.1 11.1----29.95- 87.6-----
2026-09-05 11:36 amSSE 8.0 12.0----29.95- 86.4-----
2026-09-05 11:30 am SE 7.0 12.0----29.95- 86.7-----
2026-09-05 11:24 am SE 8.0 13.0----29.96- 86.9-----
2026-09-05 11:18 amSSE 6.0 9.9----29.96-------
2026-09-05 11:12 amESE 7.0 12.0----29.96-------
2026-09-05 11:06 amSSE 8.0 14.0----29.96-------
2026-09-05 11:00 amSSE 9.9 14.0----29.96+0.01 86.2-----
2026-09-05 10:54 amSSE 9.9 11.1----29.96- 86.5-----
2026-09-05 10:48 amESE 8.9 13.0----29.96- 86.7-----
2026-09-05 10:42 am SE 9.9 14.0----29.96- 86.4-----
2026-09-05 10:36 amESE 8.9 15.9----29.97- 86.7-----
2026-09-05 10:30 am SE 8.0 15.9----29.96- 86.7-----
2026-09-05 10:24 amESE 7.0 14.0----29.97- 86.7-----
2026-09-05 10:18 amSSE 8.0 13.0----29.96-------
2026-09-05 10:12 am SE 8.0 15.9----29.97-------
2026-09-05 10:06 am SE 5.1 12.0----29.97-------
2026-09-05 10:00 am SE 8.0 11.1----29.97+0.03 86.7-----
2026-09-05 09:54 am SE 8.9 15.0----29.97- 86.4-----
2026-09-05 09:48 am E 8.0 14.0----29.97- 86.9-----
2026-09-05 09:42 am SE 8.9 12.0----29.96- 86.0-----
2026-09-05 09:36 am SE 8.0 11.1----29.96- 85.8-----
2026-09-05 09:30 amESE 7.0 11.1----29.96- 85.5-----
2026-09-05 09:24 am S 7.0 8.9----29.96- 84.7-----
2026-09-05 09:18 amSSE 4.1 7.0----29.96-------
2026-09-05 09:12 amENE 6.0 11.1----29.96-------
2026-09-05 09:06 am SE 5.1 11.1----29.96-------
2026-09-05 09:00 amESE 8.0 13.0----29.96+0.04 85.5-----
2026-09-05 08:54 am SE 5.1 13.0----29.96- 85.6-----
2026-09-05 08:48 am SE 9.9 12.0----29.96- 85.3-----
2026-09-05 08:42 amESE 6.0 13.0----29.96- 85.8-----
2026-09-05 08:36 am SE 7.0 11.1----29.96- 85.8-----
2026-09-05 08:30 amESE 4.1 11.1----29.96- 85.8-----
2026-09-05 08:24 am SE 7.0 11.1----29.96- 85.6-----
2026-09-05 08:18 amSSE 6.0 8.9----29.96-------
2026-09-05 08:12 amESE 1.9 5.1----29.96-------
2026-09-05 08:06 amESE 4.1 8.9----29.95-------
2026-09-05 08:00 amESE 4.1 5.1----29.95+0.04 85.1-----
2026-09-05 07:54 amESE 4.1 6.0----29.95- 85.3-----